Time;durP1;ratioP1;P1;durP2;ratioP2;P2;SDS_P1;SDS_P2;PMS_P1;PMS_P2;Temp;Humidity;BMP_temperature;BMP_pressure;BME280_temperature;BME280_humidity;BME280_pressure;Samples;Min_cycle;Max_cycle;Signal;HPM_P1;HPM_P2
2020/12/18 00:00:23;;;;;;;1.90;0.37;;;;;;;9.30;100.00;101543.63;4957840;28;20186;-79
2020/12/18 00:02:49;;;;;;;1.63;0.40;;;;;;;9.17;100.00;101550.81;4956256;28;20211;-78
2020/12/18 00:05:14;;;;;;;3.60;0.83;;;;;;;9.29;100.00;101560.88;4974864;28;20245;-79
2020/12/18 00:07:41;;;;;;;2.10;0.43;;;;;;;9.27;100.00;101547.72;4973693;28;20194;-79
2020/12/18 00:10:06;;;;;;;1.70;0.40;;;;;;;9.27;100.00;101555.03;4957856;28;20190;-77
2020/12/18 00:12:31;;;;;;;1.73;0.30;;;;;;;9.21;100.00;101561.69;4973582;28;20556;-79
2020/12/18 00:14:57;;;;;;;1.70;0.30;;;;;;;9.36;100.00;101553.88;4956668;28;20189;-78
2020/12/18 00:17:22;;;;;;;2.60;0.50;;;;;;;9.23;100.00;101548.72;4968198;28;20188;-79
2020/12/18 00:19:48;;;;;;;2.37;0.47;;;;;;;9.42;100.00;101549.09;4972759;28;20586;-79
2020/12/18 00:22:13;;;;;;;1.77;0.30;;;;;;;9.12;100.00;101550.19;4938545;28;20268;-78
2020/12/18 00:24:41;;;;;;;2.30;0.33;;;;;;;9.14;100.00;101556.03;4956258;28;20194;-78
2020/12/18 00:27:06;;;;;;;2.30;0.50;;;;;;;9.06;100.00;101544.97;4961256;28;20198;-77
2020/12/18 00:29:32;;;;;;;2.03;0.43;;;;;;;9.04;100.00;101563.31;4976814;28;20520;-79
2020/12/18 00:31:58;;;;;;;2.30;0.47;;;;;;;8.89;100.00;101555.78;4977974;28;20187;-78
2020/12/18 00:34:24;;;;;;;1.70;0.27;;;;;;;8.79;100.00;101555.34;4979644;28;20213;-77
2020/12/18 00:36:51;;;;;;;2.40;0.50;;;;;;;8.87;100.00;101563.38;4972495;28;20446;-77
2020/12/18 00:39:17;;;;;;;2.20;0.50;;;;;;;8.71;100.00;101554.25;4961500;28;20860;-79
2020/12/18 00:41:42;;;;;;;1.60;0.23;;;;;;;8.61;100.00;101557.28;4957750;28;20450;-79
2020/12/18 00:44:08;;;;;;;1.70;0.40;;;;;;;8.50;100.00;101553.34;4978200;28;20217;-79
2020/12/18 00:46:34;;;;;;;1.50;0.30;;;;;;;8.53;100.00;101551.94;4947329;28;20170;-79
2020/12/18 00:49:00;;;;;;;1.67;0.30;;;;;;;8.47;100.00;101561.25;4973735;28;20189;-78
2020/12/18 00:51:25;;;;;;;1.80;0.50;;;;;;;8.52;100.00;101561.88;4960955;28;20860;-79
2020/12/18 00:53:50;;;;;;;1.80;0.50;;;;;;;8.35;100.00;101564.56;4977199;28;20457;-79
2020/12/18 00:56:16;;;;;;;2.17;0.70;;;;;;;8.42;100.00;101570.25;4976173;28;20272;-79
2020/12/18 00:58:44;;;;;;;1.97;0.33;;;;;;;8.56;100.00;101562.81;4959364;28;20182;-79
2020/12/18 01:01:11;;;;;;;1.90;0.40;;;;;;;8.49;100.00;101562.53;4951819;28;20827;-77
2020/12/18 01:03:37;;;;;;;2.40;0.53;;;;;;;8.43;100.00;101568.34;4943290;28;20461;-79
2020/12/18 01:06:10;;;;;;;2.63;0.53;;;;;;;8.18;100.00;101556.50;4961779;28;20473;-78
2020/12/18 01:08:40;;;;;;;2.40;0.53;;;;;;;8.42;100.00;101564.88;4963421;28;20193;-78
2020/12/18 01:11:07;;;;;;;1.53;0.27;;;;;;;8.05;100.00;101565.50;4976201;28;20853;-78
2020/12/18 01:13:34;;;;;;;2.40;0.40;;;;;;;7.78;100.00;101573.84;4958167;28;20946;-78
2020/12/18 01:16:02;;;;;;;2.47;0.77;;;;;;;8.10;100.00;101568.81;4959469;28;20909;-79
2020/12/18 01:18:32;;;;;;;2.47;0.70;;;;;;;7.90;100.00;101571.31;4963790;28;20436;-78
2020/12/18 01:21:01;;;;;;;2.93;0.70;;;;;;;7.98;100.00;101576.69;4960629;28;20555;-77
2020/12/18 01:23:32;;;;;;;2.13;0.60;;;;;;;8.02;100.00;101568.81;4975819;28;20186;-77
2020/12/18 01:26:02;;;;;;;2.20;0.40;;;;;;;8.12;100.00;101579.22;4957631;28;20469;-78
2020/12/18 01:28:28;;;;;;;1.80;0.40;;;;;;;7.96;100.00;101583.47;4958722;28;20448;-77
2020/12/18 01:30:54;;;;;;;2.17;0.50;;;;;;;8.02;100.00;101574.16;4961091;28;20425;-78
2020/12/18 01:33:20;;;;;;;1.80;0.33;;;;;;;8.02;100.00;101593.72;4955764;28;20979;-77
2020/12/18 01:35:46;;;;;;;2.80;0.60;;;;;;;7.77;100.00;101591.00;4979281;28;20450;-77
2020/12/18 01:38:12;;;;;;;2.00;0.57;;;;;;;7.78;100.00;101603.31;4955655;28;20186;-78
2020/12/18 01:40:40;;;;;;;1.90;0.37;;;;;;;7.93;100.00;101597.50;4956638;29;20185;-78
2020/12/18 01:43:10;;;;;;;1.67;0.40;;;;;;;8.03;100.00;101589.94;4964119;28;20469;-78
2020/12/18 01:45:39;;;;;;;2.40;0.60;;;;;;;8.05;100.00;101595.00;4952958;29;20920;-78
2020/12/18 01:48:07;;;;;;;1.37;0.17;;;;;;;7.93;100.00;101586.78;4955093;28;20476;-78
2020/12/18 01:50:45;;;;;;;1.73;0.30;;;;;;;8.14;100.00;101603.84;4954508;28;20524;-79
2020/12/18 01:53:11;;;;;;;2.20;0.77;;;;;;;8.11;100.00;101605.25;4955752;28;20966;-79
2020/12/18 01:55:55;;;;;;;2.30;0.60;;;;;;;8.03;100.00;101603.34;4952282;28;20489;-78
2020/12/18 01:58:22;;;;;;;2.20;0.40;;;;;;;8.02;100.00;101591.06;4927132;28;20892;-79
2020/12/18 02:00:48;;;;;;;2.40;0.40;;;;;;;8.28;100.00;101596.47;4972984;28;20612;-79
2020/12/18 02:03:23;;;;;;;3.13;0.70;;;;;;;8.12;100.00;101585.38;4955922;28;21050;-78
2020/12/18 02:06:17;;;;;;;1.83;0.40;;;;;;;8.13;100.00;101596.88;4969862;28;20457;-78
2020/12/18 02:08:52;;;;;;;2.27;0.60;;;;;;;8.07;100.00;101603.53;4971864;28;21029;-79
2020/12/18 02:11:36;;;;;;;3.00;0.50;;;;;;;8.09;100.00;101599.41;4972555;28;20461;-78
2020/12/18 02:14:12;;;;;;;2.40;0.57;;;;;;;8.32;100.00;101602.78;4954450;28;20476;-79
2020/12/18 02:16:40;;;;;;;1.90;0.50;;;;;;;8.22;100.00;101605.75;4932162;29;20873;-79
2020/12/18 02:19:10;;;;;;;1.73;0.43;;;;;;;8.21;100.00;101604.16;4951948;28;20437;-79
2020/12/18 02:21:37;;;;;;;2.50;0.60;;;;;;;8.37;100.00;101607.97;4954756;28;20425;-79
2020/12/18 02:24:08;;;;;;;3.70;0.97;;;;;;;8.48;100.00;101597.72;4955677;28;20564;-79
2020/12/18 02:26:33;;;;;;;2.23;0.67;;;;;;;8.37;100.00;101605.31;4948153;28;20441;-79
2020/12/18 02:29:00;;;;;;;2.37;0.70;;;;;;;8.48;100.00;101609.25;4946700;28;20434;-78
2020/12/18 02:31:33;;;;;;;2.03;0.47;;;;;;;8.30;100.00;101599.63;4943682;28;20441;-78
2020/12/18 02:34:26;;;;;;;1.83;0.40;;;;;;;8.30;100.00;101607.69;5021618;23;20491;-77
2020/12/18 02:36:53;;;;;;;3.60;0.50;;;;;;;8.54;100.00;101612.53;5016244;28;20496;-80
2020/12/18 02:39:19;;;;;;;3.23;0.63;;;;;;;8.41;100.00;101611.63;5028506;28;20926;-77
2020/12/18 02:41:50;;;;;;;2.10;0.43;;;;;;;8.55;100.00;101603.41;5015977;28;21019;-76
2020/12/18 02:44:20;;;;;;;2.30;0.60;;;;;;;8.46;100.00;101605.31;5021478;28;20835;-76
2020/12/18 02:47:10;;;;;;;1.67;0.40;;;;;;;8.59;100.00;101610.50;5016592;28;20442;-75
2020/12/18 02:49:36;;;;;;;2.87;0.60;;;;;;;8.78;100.00;101618.22;5010554;28;20451;-76
2020/12/18 02:52:03;;;;;;;1.80;0.40;;;;;;;8.64;100.00;101612.22;5028610;28;20191;-76
2020/12/18 02:54:58;;;;;;;3.30;0.70;;;;;;;8.55;100.00;101611.47;4992763;28;20503;-76
2020/12/18 02:57:44;;;;;;;2.60;0.60;;;;;;;8.53;100.00;101606.41;5033621;28;20809;-76
2020/12/18 03:00:22;;;;;;;1.90;0.30;;;;;;;8.44;100.00;101597.56;5024523;28;20779;-76
2020/12/18 03:02:50;;;;;;;2.80;0.57;;;;;;;8.47;100.00;101596.13;5028307;28;20488;-76
2020/12/18 03:05:16;;;;;;;2.50;0.53;;;;;;;8.31;100.00;101600.41;5028609;28;20454;-76
2020/12/18 03:08:00;;;;;;;2.00;0.40;;;;;;;8.40;100.00;101593.94;5021553;28;20718;-76
2020/12/18 03:10:27;;;;;;;2.50;0.43;;;;;;;8.36;100.00;101597.56;5024448;28;20453;-76
2020/12/18 03:12:53;;;;;;;1.70;0.40;;;;;;;8.47;100.00;101606.88;5025589;28;21240;-76
2020/12/18 03:15:19;;;;;;;2.50;0.63;;;;;;;8.50;100.00;101607.03;5027764;28;20509;-77
2020/12/18 03:18:07;;;;;;;2.77;0.80;;;;;;;8.35;100.00;101614.75;5023344;28;20435;-76
2020/12/18 03:20:35;;;;;;;2.23;0.40;;;;;;;8.46;100.00;101611.44;5027604;28;20454;-75
2020/12/18 03:23:19;;;;;;;2.00;0.63;;;;;;;8.52;100.00;101609.38;5022904;28;20477;-75
2020/12/18 03:26:07;;;;;;;2.30;0.77;;;;;;;8.52;100.00;101615.56;5024246;28;20998;-75
2020/12/18 03:28:39;;;;;;;2.67;0.60;;;;;;;8.70;100.00;101613.66;5027111;28;20445;-79
2020/12/18 03:31:06;;;;;;;2.63;0.67;;;;;;;8.72;100.00;101604.19;5044024;28;20473;-76
2020/12/18 03:33:32;;;;;;;1.97;0.50;;;;;;;8.82;100.00;101611.09;5015077;28;20474;-76
2020/12/18 03:36:10;;;;;;;1.63;0.60;;;;;;;8.64;100.00;101613.03;5020378;28;20528;-75
2020/12/18 03:38:35;;;;;;;2.53;0.80;;;;;;;8.51;100.00;101613.19;5026592;28;20886;-76
2020/12/18 03:41:05;;;;;;;2.00;0.60;;;;;;;8.60;100.00;101605.91;5022260;28;20547;-76
2020/12/18 03:43:32;;;;;;;2.70;0.43;;;;;;;8.45;100.00;101598.34;5026450;28;20552;-76
2020/12/18 03:45:58;;;;;;;2.17;0.33;;;;;;;8.60;100.00;101617.44;5024714;28;20827;-76
2020/12/18 03:48:44;;;;;;;3.67;0.80;;;;;;;8.57;100.00;101610.03;5021966;28;20550;-76
2020/12/18 03:51:21;;;;;;;1.90;0.50;;;;;;;8.63;100.00;101611.44;5012812;28;20434;-77
2020/12/18 03:53:48;;;;;;;2.17;0.70;;;;;;;8.44;100.00;101615.56;5035582;28;20462;-75
2020/12/18 03:56:32;;;;;;;2.27;0.57;;;;;;;8.52;100.00;101618.25;5022901;28;20462;-77
2020/12/18 03:59:15;;;;;;;2.10;0.47;;;;;;;8.35;100.00;101615.56;5025652;28;20427;-76
2020/12/18 04:02:00;;;;;;;3.30;0.90;;;;;;;8.48;100.00;101611.91;5031119;28;20519;-77
2020/12/18 04:04:26;;;;;;;2.77;0.57;;;;;;;8.65;100.00;101614.59;5022970;28;20992;-77
2020/12/18 04:06:55;;;;;;;2.73;0.63;;;;;;;8.70;100.00;101624.38;5024854;28;20427;-77
2020/12/18 04:09:22;;;;;;;1.83;0.40;;;;;;;8.57;100.00;101611.94;5013744;28;20969;-77
2020/12/18 04:11:57;;;;;;;3.17;0.87;;;;;;;8.49;100.00;101621.56;5014288;28;20262;-76
2020/12/18 04:14:28;;;;;;;1.33;0.30;;;;;;;8.63;100.00;101621.41;5022997;28;20512;-77
2020/12/18 04:17:13;;;;;;;3.17;0.50;;;;;;;8.76;100.00;101631.97;5016250;28;20441;-76
2020/12/18 04:19:42;;;;;;;2.57;1.00;;;;;;;8.65;100.00;101628.00;5027277;28;21350;-75
2020/12/18 04:22:08;;;;;;;1.70;0.40;;;;;;;8.57;100.00;101623.47;5039226;28;20502;-76
2020/12/18 04:24:52;;;;;;;2.77;0.77;;;;;;;8.49;100.00;101623.47;5034464;28;20552;-76
2020/12/18 04:27:19;;;;;;;2.57;0.93;;;;;;;8.54;100.00;101626.75;5012109;28;20485;-76
2020/12/18 04:29:46;;;;;;;2.27;0.70;;;;;;;8.43;100.00;101625.50;5045880;28;20439;-74
2020/12/18 04:32:14;;;;;;;2.23;1.13;;;;;;;8.55;100.00;101625.69;5022703;28;20442;-75
2020/12/18 04:34:40;;;;;;;2.97;0.60;;;;;;;8.70;100.00;101619.81;5032285;28;20488;-75
2020/12/18 04:37:16;;;;;;;2.73;0.67;;;;;;;8.66;100.00;101621.56;5005251;28;20443;-76
2020/12/18 04:40:00;;;;;;;3.70;0.87;;;;;;;8.51;100.00;101623.94;5014917;28;20449;-76
2020/12/18 04:42:34;;;;;;;2.57;0.80;;;;;;;8.65;100.00;101619.97;5018174;28;20445;-76
2020/12/18 04:45:03;;;;;;;2.87;0.80;;;;;;;8.58;100.00;101624.22;5040121;28;20554;-76
2020/12/18 04:47:40;;;;;;;2.10;0.70;;;;;;;8.77;100.00;101617.44;5022742;28;20443;-76
2020/12/18 04:50:07;;;;;;;2.93;0.87;;;;;;;8.70;100.00;101627.88;5020159;28;20453;-76
2020/12/18 04:52:38;;;;;;;3.27;0.87;;;;;;;8.81;100.00;101618.38;5022778;28;20571;-76
2020/12/18 04:55:05;;;;;;;3.37;0.77;;;;;;;8.88;100.00;101629.41;5007692;28;20481;-76
2020/12/18 04:58:09;;;;;;;1.87;0.47;;;;;;;8.88;100.00;101624.03;5032492;28;20529;-76
2020/12/18 05:00:35;;;;;;;4.03;1.00;;;;;;;8.91;100.00;101628.00;5024437;28;20974;-76
2020/12/18 05:03:19;;;;;;;1.87;0.50;;;;;;;8.72;100.00;101620.28;5019575;28;20738;-75
2020/12/18 05:05:46;;;;;;;2.30;0.47;;;;;;;8.70;100.00;101624.38;5024362;28;20835;-76
2020/12/18 05:08:16;;;;;;;1.40;0.30;;;;;;;8.56;100.00;101618.38;5020960;28;20453;-76
2020/12/18 05:10:42;;;;;;;2.10;0.40;;;;;;;8.57;100.00;101619.97;5020358;28;20439;-76
2020/12/18 05:13:29;;;;;;;2.90;0.57;;;;;;;8.39;100.00;101626.44;5022354;28;20473;-76
2020/12/18 05:16:02;;;;;;;2.67;0.70;;;;;;;8.51;100.00;101616.69;5019102;28;20426;-76
2020/12/18 05:18:45;;;;;;;2.37;0.57;;;;;;;8.49;100.00;101620.78;5012302;28;20469;-76
2020/12/18 05:21:26;;;;;;;2.50;0.57;;;;;;;8.52;100.00;101630.88;5035614;28;20443;-76
2020/12/18 05:23:54;;;;;;;2.57;0.77;;;;;;;8.62;100.00;101623.28;5029312;28;20454;-76
2020/12/18 05:26:28;;;;;;;2.10;0.50;;;;;;;8.64;100.00;101621.09;5022120;28;20832;-75
2020/12/18 05:29:05;;;;;;;2.37;0.70;;;;;;;8.37;100.00;101618.72;4995497;28;20435;-76
2020/12/18 05:31:36;;;;;;;2.00;0.40;;;;;;;8.36;100.00;101622.53;5008785;28;20467;-76
2020/12/18 05:34:14;;;;;;;1.60;0.20;;;;;;;8.51;100.00;101618.56;5020929;28;20834;-76
2020/12/18 05:36:51;;;;;;;2.50;0.80;;;;;;;8.19;100.00;101631.31;5031758;28;20446;-76
2020/12/18 05:39:36;;;;;;;1.97;0.50;;;;;;;8.17;100.00;101624.66;5021643;28;20542;-76
2020/12/18 05:42:03;;;;;;;1.90;0.40;;;;;;;8.18;100.00;101629.75;5015030;28;20504;-75
2020/12/18 05:44:34;;;;;;;1.60;0.40;;;;;;;8.25;100.00;101620.44;5014489;28;20553;-76
2020/12/18 05:47:52;;;;;;;1.80;0.50;;;;;;;8.45;100.00;101626.00;4971467;28;20445;-76
2020/12/18 05:50:18;;;;;;;4.37;0.47;;;;;;;8.50;100.00;101622.34;5022858;28;20435;-76
2020/12/18 05:53:00;;;;;;;2.40;0.40;;;;;;;8.54;100.00;101618.72;5029198;28;20505;-76
2020/12/18 05:55:42;;;;;;;2.40;0.53;;;;;;;8.35;100.00;101620.13;5024331;28;20522;-76
2020/12/18 05:58:25;;;;;;;1.80;0.40;;;;;;;8.41;100.00;101619.66;5027376;28;20835;-76
2020/12/18 06:01:05;;;;;;;2.10;0.70;;;;;;;8.27;100.00;101618.22;5001392;28;20508;-76
2020/12/18 06:04:11;;;;;;;2.60;0.63;;;;;;;8.27;100.00;101626.28;4986030;28;20462;-75
2020/12/18 06:06:46;;;;;;;1.77;0.30;;;;;;;8.16;100.00;101625.78;5020150;28;20512;-76
2020/12/18 06:09:20;;;;;;;1.50;0.30;;;;;;;8.26;100.00;101627.41;5012062;28;20442;-76
2020/12/18 06:11:47;;;;;;;1.80;0.33;;;;;;;8.20;100.00;101618.69;5025527;28;20443;-76
2020/12/18 06:14:17;;;;;;;1.50;0.30;;;;;;;8.15;100.00;101624.19;5024058;28;20486;-76
2020/12/18 06:16:51;;;;;;;2.20;0.43;;;;;;;8.07;100.00;101623.06;5028337;28;20442;-75
2020/12/18 06:19:31;;;;;;;2.80;0.43;;;;;;;8.20;100.00;101626.75;5021015;28;20442;-76
2020/12/18 06:21:58;;;;;;;1.80;0.30;;;;;;;8.01;100.00;101639.66;5022236;28;20435;-76
2020/12/18 06:24:44;;;;;;;1.93;0.50;;;;;;;7.96;100.00;101632.53;5032183;28;20965;-76
2020/12/18 06:27:30;;;;;;;1.73;0.27;;;;;;;8.01;100.00;101636.97;5009843;28;20469;-76
2020/12/18 06:30:09;;;;;;;1.73;0.40;;;;;;;8.13;100.00;101637.13;5023948;28;20458;-76
2020/12/18 06:32:54;;;;;;;2.13;0.50;;;;;;;7.98;100.00;101638.38;5021207;28;20477;-76
2020/12/18 06:35:38;;;;;;;2.23;0.50;;;;;;;8.11;100.00;101637.44;5017749;28;20426;-75
2020/12/18 06:38:25;;;;;;;1.70;0.40;;;;;;;7.85;100.00;101633.94;4998621;28;20505;-76
2020/12/18 06:41:25;;;;;;;1.90;0.40;;;;;;;7.77;100.00;101633.91;5010876;28;20449;-76
2020/12/18 06:44:36;;;;;;;2.10;0.43;;;;;;;7.86;100.00;101640.06;5016144;28;20470;-76
2020/12/18 06:47:37;;;;;;;2.67;0.53;;;;;;;7.82;100.00;101644.50;5028823;28;20809;-75
2020/12/18 06:50:14;;;;;;;1.87;0.40;;;;;;;7.79;100.00;101640.53;5025253;28;20470;-76
2020/12/18 06:52:59;;;;;;;1.87;0.37;;;;;;;7.86;100.00;101630.13;5022362;28;20472;-76
2020/12/18 06:55:40;;;;;;;1.80;0.37;;;;;;;7.56;100.00;101638.25;5032643;28;20523;-76
2020/12/18 06:58:25;;;;;;;1.83;0.33;;;;;;;7.44;100.00;101627.31;5024203;28;20449;-75
2020/12/18 07:00:52;;;;;;;2.10;0.50;;;;;;;7.49;100.00;101624.50;5015762;28;20450;-76
2020/12/18 07:03:38;;;;;;;3.97;0.43;;;;;;;7.34;100.00;101627.63;5027953;28;20557;-76
2020/12/18 07:06:06;;;;;;;2.37;0.57;;;;;;;7.40;100.00;101626.34;5015588;28;20598;-76
2020/12/18 07:08:34;;;;;;;2.00;0.47;;;;;;;7.33;100.00;101634.84;5016823;28;20434;-76
2020/12/18 07:11:03;;;;;;;2.17;0.50;;;;;;;7.39;100.00;101624.78;5034377;28;20439;-76
2020/12/18 07:13:30;;;;;;;2.80;0.43;;;;;;;7.44;100.00;101617.41;5041984;28;20459;-76
2020/12/18 07:16:10;;;;;;;2.57;0.50;;;;;;;7.19;100.00;101626.91;5027721;28;20442;-77
2020/12/18 07:18:40;;;;;;;1.80;0.30;;;;;;;7.27;100.00;101628.84;5021917;28;21004;-76
2020/12/18 07:21:11;;;;;;;2.20;0.30;;;;;;;7.36;100.00;101626.19;5025955;28;20446;-76
2020/12/18 07:23:39;;;;;;;1.70;0.33;;;;;;;7.20;100.00;101625.78;5028880;28;20465;-76
2020/12/18 07:26:07;;;;;;;2.93;0.57;;;;;;;7.28;100.00;101630.41;5037942;28;20541;-76
2020/12/18 07:28:37;;;;;;;2.03;0.43;;;;;;;7.32;100.00;101639.41;5035970;28;20443;-77
2020/12/18 07:31:05;;;;;;;1.50;0.50;;;;;;;7.26;100.00;101629.91;5026276;28;20822;-76
2020/12/18 07:33:30;;;;;;;1.87;0.40;;;;;;;7.23;100.00;101638.59;5020144;28;20477;-76
2020/12/18 07:35:56;;;;;;;1.93;0.30;;;;;;;7.35;100.00;101637.22;5026173;28;20443;-75
2020/12/18 07:38:26;;;;;;;2.80;0.30;;;;;;;7.24;100.00;101637.47;5022065;28;20229;-76
2020/12/18 07:40:54;;;;;;;2.50;0.30;;;;;;;7.20;100.00;101644.53;5012131;28;20180;-77
2020/12/18 07:43:22;;;;;;;2.37;0.53;;;;;;;7.43;100.00;101636.47;5022637;28;20459;-75
2020/12/18 07:45:55;;;;;;;2.70;0.50;;;;;;;7.32;100.00;101634.06;5014361;28;20470;-79
2020/12/18 07:48:31;;;;;;;1.90;0.43;;;;;;;7.40;100.00;101634.38;5037926;28;20442;-75
2020/12/18 07:50:57;;;;;;;1.60;0.30;;;;;;;7.28;100.00;101635.75;5023347;28;20445;-76
2020/12/18 07:53:24;;;;;;;1.33;0.20;;;;;;;7.41;100.00;101636.78;5025357;28;20481;-75
2020/12/18 07:56:00;;;;;;;1.60;0.37;;;;;;;7.32;100.00;101636.72;5028677;28;20438;-75
2020/12/18 07:58:26;;;;;;;1.67;0.27;;;;;;;7.20;100.00;101633.06;5027185;28;20438;-75
2020/12/18 08:01:14;;;;;;;1.73;0.40;;;;;;;7.17;100.00;101634.47;5029276;28;20441;-75
2020/12/18 08:03:43;;;;;;;2.37;0.57;;;;;;;7.37;100.00;101624.31;5026532;28;20294;-76
2020/12/18 08:06:15;;;;;;;1.90;0.30;;;;;;;7.09;100.00;101631.72;5021075;28;20462;-77
2020/12/18 08:08:41;;;;;;;1.47;0.20;;;;;;;7.03;100.00;101633.75;5023943;28;20570;-76
2020/12/18 08:11:15;;;;;;;4.23;0.60;;;;;;;7.13;100.00;101628.13;4997034;28;20446;-76
2020/12/18 08:13:41;;;;;;;1.70;0.30;;;;;;;7.23;100.00;101633.22;5027265;28;20537;-76
2020/12/18 08:16:11;;;;;;;3.30;0.43;;;;;;;7.22;100.00;101625.47;5029697;28;20995;-76
2020/12/18 08:18:42;;;;;;;1.40;0.27;;;;;;;7.44;100.00;101627.31;5043387;28;20576;-76
2020/12/18 08:21:08;;;;;;;1.77;0.40;;;;;;;7.31;100.00;101620.97;5022718;28;20450;-75
2020/12/18 08:23:36;;;;;;;2.03;0.40;;;;;;;7.19;100.00;101621.53;5019260;28;20466;-76
2020/12/18 08:26:04;;;;;;;1.70;0.23;;;;;;;7.11;100.00;101616.94;5025751;28;20211;-76
2020/12/18 08:28:31;;;;;;;1.70;0.37;;;;;;;7.12;100.00;101626.53;5023025;28;20581;-76
2020/12/18 08:31:05;;;;;;;2.63;0.37;;;;;;;7.12;100.00;101631.13;5007620;28;20443;-76
2020/12/18 08:33:45;;;;;;;1.83;0.40;;;;;;;7.42;100.00;101622.28;5011725;28;20821;-77
2020/12/18 08:36:12;;;;;;;1.40;0.23;;;;;;;7.48;100.00;101634.44;5028701;28;20442;-77
2020/12/18 08:39:02;;;;;;;1.40;0.20;;;;;;;7.21;100.00;101630.06;5028790;28;20444;-77
2020/12/18 08:41:38;;;;;;;1.60;0.30;;;;;;;7.26;100.00;101639.84;5015416;28;20518;-77
2020/12/18 08:44:05;;;;;;;1.97;0.43;;;;;;;7.15;100.00;101633.97;5019963;28;21060;-77
2020/12/18 08:46:34;;;;;;;2.10;0.60;;;;;;;7.18;100.00;101630.66;5017138;28;20520;-76
2020/12/18 08:49:02;;;;;;;1.60;0.20;;;;;;;7.25;100.00;101633.72;5025465;28;20475;-76
2020/12/18 08:51:30;;;;;;;2.00;0.30;;;;;;;7.32;100.00;101637.84;5008331;28;20534;-76
2020/12/18 08:53:55;;;;;;;1.30;0.10;;;;;;;7.38;100.00;101640.06;5007376;28;20946;-76
2020/12/18 08:56:21;;;;;;;1.80;0.30;;;;;;;7.24;100.00;101640.16;5025290;28;20471;-76
2020/12/18 08:58:46;;;;;;;1.40;0.10;;;;;;;7.32;100.00;101642.09;5020965;28;20189;-76
2020/12/18 09:01:23;;;;;;;2.20;0.50;;;;;;;7.21;100.00;101638.09;5016312;28;20329;-75
2020/12/18 09:03:49;;;;;;;1.60;0.30;;;;;;;7.29;100.00;101640.03;5025951;28;20210;-75
2020/12/18 09:06:14;;;;;;;2.00;0.30;;;;;;;7.43;100.00;101639.16;5016754;28;20853;-75
2020/12/18 09:08:40;;;;;;;2.00;0.40;;;;;;;7.57;100.00;101629.13;5028643;28;20271;-76
2020/12/18 09:11:25;;;;;;;1.70;0.30;;;;;;;7.70;100.00;101633.56;5025578;28;20193;-75
2020/12/18 09:13:51;;;;;;;1.60;0.33;;;;;;;7.87;100.00;101637.09;4939573;29;20222;-75
2020/12/18 09:16:23;;;;;;;1.80;0.47;;;;;;;8.01;100.00;101643.09;4948937;28;20516;-75
2020/12/18 09:18:51;;;;;;;2.60;0.30;;;;;;;8.27;100.00;101648.53;4952999;28;20194;-75
2020/12/18 09:21:18;;;;;;;1.43;0.40;;;;;;;8.29;100.00;101651.69;4947816;28;20443;-76
2020/12/18 09:23:47;;;;;;;1.87;0.20;;;;;;;8.40;100.00;101647.59;4940611;28;20517;-76
2020/12/18 09:26:23;;;;;;;2.07;0.40;;;;;;;8.57;100.00;101658.38;4947713;29;20493;-76
2020/12/18 09:28:49;;;;;;;1.73;0.40;;;;;;;8.23;100.00;101645.66;4950633;28;20501;-76
2020/12/18 09:31:14;;;;;;;2.33;0.40;;;;;;;8.45;100.00;101652.81;4946371;29;20438;-76
2020/12/18 09:33:40;;;;;;;1.90;0.30;;;;;;;8.28;100.00;101642.09;4944509;28;20223;-76
2020/12/18 09:36:05;;;;;;;1.93;0.37;;;;;;;8.25;100.00;101633.84;4950907;28;20201;-76
2020/12/18 09:38:39;;;;;;;2.60;0.30;;;;;;;8.45;100.00;101630.56;4936342;29;20998;-76
2020/12/18 09:41:08;;;;;;;1.50;0.23;;;;;;;8.30;100.00;101639.88;4928652;28;20308;-76
2020/12/18 09:43:33;;;;;;;1.70;0.20;;;;;;;8.18;100.00;101637.00;4950070;28;20545;-76
2020/12/18 09:45:59;;;;;;;1.57;0.27;;;;;;;8.55;100.00;101638.31;4939398;28;21236;-76
2020/12/18 09:48:26;;;;;;;1.40;0.20;;;;;;;8.33;100.00;101643.81;4931540;29;20253;-76
2020/12/18 09:50:55;;;;;;;1.50;0.30;;;;;;;8.45;100.00;101639.41;4980542;28;20226;-76
2020/12/18 09:53:25;;;;;;;1.57;0.30;;;;;;;8.62;100.00;101642.09;5023902;28;20446;-76
2020/12/18 09:55:52;;;;;;;1.37;0.20;;;;;;;8.58;100.00;101635.75;5026167;28;20525;-76
2020/12/18 09:58:17;;;;;;;1.50;0.23;;;;;;;8.69;100.00;101626.28;5022923;28;20551;-76
2020/12/18 10:00:43;;;;;;;2.13;0.30;;;;;;;8.78;100.00;101627.06;5017017;28;20545;-76
2020/12/18 10:03:09;;;;;;;2.00;0.23;;;;;;;8.84;100.00;101628.50;5024810;28;20260;-75
2020/12/18 10:05:35;;;;;;;1.30;0.20;;;;;;;8.96;100.00;101623.22;5031994;28;20470;-76
2020/12/18 10:08:00;;;;;;;1.93;0.30;;;;;;;9.12;100.00;101628.88;5018410;28;20188;-75
2020/12/18 10:10:30;;;;;;;2.70;0.50;;;;;;;8.93;100.00;101639.19;5020499;28;20215;-76
2020/12/18 10:12:56;;;;;;;1.80;0.30;;;;;;;8.85;100.00;101635.44;5030693;28;20980;-76
2020/12/18 10:15:22;;;;;;;1.40;0.30;;;;;;;8.72;100.00;101625.66;5023928;28;20980;-76
2020/12/18 10:17:48;;;;;;;1.93;0.30;;;;;;;8.81;100.00;101620.25;5017386;28;20443;-76
2020/12/18 10:20:14;;;;;;;1.50;0.20;;;;;;;8.97;100.00;101615.97;5027211;28;20451;-76
2020/12/18 10:22:39;;;;;;;1.40;0.30;;;;;;;9.21;100.00;101618.13;5028735;28;20215;-76
2020/12/18 10:25:05;;;;;;;1.90;0.40;;;;;;;8.96;100.00;101614.41;5019494;28;20478;-76
2020/12/18 10:27:30;;;;;;;1.70;0.20;;;;;;;9.08;100.00;101623.38;5023512;28;20667;-76
2020/12/18 10:29:56;;;;;;;1.50;0.30;;;;;;;8.92;100.00;101611.53;5026921;28;20190;-76
2020/12/18 10:32:25;;;;;;;1.40;0.20;;;;;;;8.98;100.00;101612.94;5027857;28;20211;-76
2020/12/18 10:34:51;;;;;;;1.93;0.40;;;;;;;9.01;100.00;101612.34;5028814;28;20185;-76
2020/12/18 10:37:17;;;;;;;1.97;0.20;;;;;;;8.96;100.00;101614.41;5027218;28;20441;-76
2020/12/18 10:39:43;;;;;;;1.47;0.30;;;;;;;9.05;100.00;101617.84;5021067;28;20195;-78
2020/12/18 10:42:08;;;;;;;1.60;0.30;;;;;;;9.06;100.00;101614.84;5011087;28;20219;-75
2020/12/18 10:44:35;;;;;;;1.47;0.23;;;;;;;9.07;100.00;101611.06;5029867;28;20290;-75
2020/12/18 10:47:00;;;;;;;2.50;0.50;;;;;;;9.24;100.00;101614.78;5030833;28;20441;-75
2020/12/18 10:49:27;;;;;;;2.10;0.33;;;;;;;9.37;100.00;101619.19;5025075;28;20992;-76
2020/12/18 10:51:52;;;;;;;1.37;0.20;;;;;;;9.45;100.00;101610.25;5031014;28;20183;-75
2020/12/18 10:54:18;;;;;;;1.30;0.20;;;;;;;9.51;99.71;101617.03;5028967;28;20462;-76
2020/12/18 10:56:46;;;;;;;1.57;0.23;;;;;;;9.41;99.78;101620.09;5026963;28;20183;-75
2020/12/18 10:59:12;;;;;;;2.17;0.50;;;;;;;9.28;100.00;101619.19;5020624;28;20189;-75
2020/12/18 11:01:38;;;;;;;2.00;0.40;;;;;;;9.30;100.00;101611.59;5023286;28;20446;-75
2020/12/18 11:04:04;;;;;;;1.70;0.40;;;;;;;9.25;100.00;101616.38;5026243;28;20248;-75
2020/12/18 11:06:30;;;;;;;1.53;0.20;;;;;;;9.33;100.00;101619.00;5029830;28;20447;-75
2020/12/18 11:08:56;;;;;;;1.70;0.30;;;;;;;9.52;100.00;101615.94;5029336;28;20450;-75
2020/12/18 11:11:22;;;;;;;1.40;0.30;;;;;;;9.75;99.38;101609.19;5022868;28;20188;-75
2020/12/18 11:13:47;;;;;;;1.80;0.30;;;;;;;9.82;98.59;101599.47;5024667;28;20467;-75
2020/12/18 11:16:16;;;;;;;1.20;0.20;;;;;;;9.72;98.73;101601.75;5029362;28;20181;-77
2020/12/18 11:18:42;;;;;;;1.40;0.20;;;;;;;9.60;99.26;101599.75;5030430;28;20203;-76
2020/12/18 11:21:08;;;;;;;1.20;0.20;;;;;;;9.68;99.32;101596.22;5024583;28;20938;-75
2020/12/18 11:23:35;;;;;;;1.67;0.20;;;;;;;9.71;99.41;101597.50;5023786;28;20224;-75
2020/12/18 11:26:02;;;;;;;1.30;0.20;;;;;;;9.76;99.94;101600.78;5020906;28;20570;-77
2020/12/18 11:28:28;;;;;;;1.50;0.20;;;;;;;9.71;99.61;101592.91;5016448;28;21268;-75
2020/12/18 11:30:53;;;;;;;1.70;0.30;;;;;;;9.76;99.16;101595.41;5024505;28;20423;-76
2020/12/18 11:33:19;;;;;;;1.10;0.10;;;;;;;9.63;99.87;101595.63;5024734;28;20478;-78
2020/12/18 11:35:45;;;;;;;1.20;0.17;;;;;;;9.58;99.91;101601.22;5016318;28;20256;-75
2020/12/18 11:38:11;;;;;;;1.93;0.30;;;;;;;9.64;100.00;101614.13;5027413;28;20188;-76
2020/12/18 11:40:37;;;;;;;2.87;0.30;;;;;;;9.60;99.91;101601.69;5025733;28;20223;-75
2020/12/18 11:43:03;;;;;;;1.33;0.30;;;;;;;9.76;100.00;101599.97;5015814;28;20451;-76
2020/12/18 11:45:28;;;;;;;1.67;0.40;;;;;;;10.00;100.00;101600.16;5019686;28;21057;-75